Time;durP1;ratioP1;P1;durP2;ratioP2;P2;SDS_P1;SDS_P2;PMS_P1;PMS_P2;Temp;Humidity;BMP_temperature;BMP_pressure;BME280_temperature;BME280_humidity;BME280_pressure;Samples;Min_cycle;Max_cycle;Signal;HPM_P1;HPM_P2
2021/04/16 00:00:55;;;;;;;1.10;0.50;;;;;;;9.72;57.44;101484.34;4958846;28;117912;-62
2021/04/16 00:03:21;;;;;;;0.80;0.30;;;;;;;9.73;57.84;101472.50;4962096;28;98644;-59
2021/04/16 00:05:47;;;;;;;1.17;0.50;;;;;;;9.71;58.21;101472.75;4961404;28;98134;-59
2021/04/16 00:08:32;;;;;;;1.48;0.60;;;;;;;9.69;57.99;101471.34;4942879;28;117839;-62
2021/04/16 00:11:23;;;;;;;1.00;0.60;;;;;;;9.66;57.97;101469.94;4961023;28;99037;-59
2021/04/16 00:13:49;;;;;;;1.27;0.50;;;;;;;9.70;57.92;101464.91;4961044;28;98915;-59
2021/04/16 00:16:18;;;;;;;1.60;0.57;;;;;;;9.72;57.91;101469.00;4960180;28;127002;-63
2021/04/16 00:18:44;;;;;;;1.63;0.70;;;;;;;9.74;57.63;101469.56;4952612;28;98098;-63
2021/04/16 00:21:10;;;;;;;1.10;0.50;;;;;;;9.80;57.95;101467.81;4940730;28;126156;-64
2021/04/16 00:23:36;;;;;;;2.55;0.73;;;;;;;9.82;57.53;101460.31;4941787;28;127976;-59
2021/04/16 00:26:03;;;;;;;1.55;0.82;;;;;;;9.83;57.69;101456.59;4956824;28;127681;-60
2021/04/16 00:28:29;;;;;;;1.23;0.65;;;;;;;9.82;57.67;101452.22;4943004;28;97670;-63
2021/04/16 00:31:23;;;;;;;1.75;0.70;;;;;;;9.87;57.32;101454.22;4939363;28;118644;-63
2021/04/16 00:33:50;;;;;;;1.45;0.70;;;;;;;9.87;57.78;101451.53;4939972;28;98368;-59
2021/04/16 00:36:16;;;;;;;1.25;0.68;;;;;;;9.88;57.35;101456.69;4940224;28;104732;-62
2021/04/16 00:38:43;;;;;;;1.17;0.77;;;;;;;9.90;57.26;101451.84;4941017;28;118224;-59
2021/04/16 00:41:12;;;;;;;1.33;0.70;;;;;;;9.87;58.07;101443.47;4940931;28;119452;-57
2021/04/16 00:43:38;;;;;;;1.33;0.70;;;;;;;9.88;57.43;101445.91;4941386;28;98293;-59
2021/04/16 00:46:16;;;;;;;2.33;0.90;;;;;;;9.90;57.13;101453.72;4942957;28;114621;-62
2021/04/16 00:48:54;;;;;;;1.40;1.00;;;;;;;9.87;57.36;101446.16;4961751;28;98109;-62
2021/04/16 00:51:32;;;;;;;1.80;0.80;;;;;;;9.82;57.81;101444.16;4940873;28;99011;-62
2021/04/16 00:53:58;;;;;;;1.90;0.77;;;;;;;9.87;57.60;101446.16;4923587;28;98503;-59
2021/04/16 00:56:24;;;;;;;1.73;0.82;;;;;;;9.80;57.95;101436.31;4922473;28;98127;-62
2021/04/16 00:58:50;;;;;;;1.35;0.70;;;;;;;9.81;57.48;101437.94;4938749;28;117921;-59
2021/04/16 01:01:17;;;;;;;2.10;0.90;;;;;;;9.82;57.38;101439.59;4933861;28;104719;-59
2021/04/16 01:03:43;;;;;;;1.35;0.80;;;;;;;9.80;57.84;101435.50;4958222;28;113808;-59
2021/04/16 01:06:10;;;;;;;1.20;0.85;;;;;;;9.79;57.71;101432.00;4960849;28;127274;-63
2021/04/16 01:08:36;;;;;;;2.53;0.95;;;;;;;9.82;57.74;101438.75;4946062;28;104026;-63
2021/04/16 01:11:03;;;;;;;1.60;0.90;;;;;;;9.79;58.10;101439.25;4941827;28;114183;-62
2021/04/16 01:13:29;;;;;;;1.80;0.80;;;;;;;9.80;57.69;101435.50;4943155;28;102666;-59
2021/04/16 01:16:00;;;;;;;1.17;0.90;;;;;;;9.79;57.83;101436.56;4941257;28;126549;-59
2021/04/16 01:18:31;;;;;;;1.60;0.90;;;;;;;9.74;57.75;101442.66;4943261;28;98044;-62
2021/04/16 01:20:59;;;;;;;1.50;0.88;;;;;;;9.75;58.43;101430.03;4941119;28;98970;-59
2021/04/16 01:24:15;;;;;;;1.63;0.82;;;;;;;9.73;57.60;101426.75;4941883;28;117497;-62
2021/04/16 01:26:41;;;;;;;1.75;0.95;;;;;;;9.71;57.87;101427.00;4944474;28;98233;-59
2021/04/16 01:29:07;;;;;;;1.50;0.93;;;;;;;9.66;58.14;101428.75;4941872;28;119244;-62
2021/04/16 01:31:33;;;;;;;1.55;0.80;;;;;;;9.70;58.10;101419.13;4953627;28;98591;-62
2021/04/16 01:33:59;;;;;;;1.92;1.10;;;;;;;9.69;58.38;101420.19;4963310;28;118910;-62
2021/04/16 01:36:28;;;;;;;1.92;1.10;;;;;;;9.68;58.12;101418.56;4955528;28;114498;-62
2021/04/16 01:38:55;;;;;;;1.63;1.10;;;;;;;9.67;58.09;101414.22;4926380;28;102944;-62
2021/04/16 01:41:22;;;;;;;1.40;0.90;;;;;;;9.66;58.34;101417.97;4942371;28;99346;-59
2021/04/16 01:43:55;;;;;;;1.08;0.70;;;;;;;9.65;58.42;101422.53;4962976;28;98387;-62
2021/04/16 01:46:22;;;;;;;1.35;0.85;;;;;;;9.65;58.55;101417.16;4963117;28;98536;-59
2021/04/16 01:48:58;;;;;;;1.40;1.00;;;;;;;9.63;58.36;101413.06;4964870;28;97808;-59
2021/04/16 01:51:32;;;;;;;1.95;1.25;;;;;;;9.64;58.57;101417.41;4957252;28;98163;-62
2021/04/16 01:54:18;;;;;;;1.80;1.23;;;;;;;9.60;58.33;101417.06;4946143;28;120700;-63
2021/04/16 01:56:50;;;;;;;1.50;0.80;;;;;;;9.59;58.50;101412.75;4943897;28;98947;-59
2021/04/16 01:59:19;;;;;;;;;;;;;;;9.55;58.21;101415.09;4959895;28;97946;-59
2021/04/16 02:01:45;;;;;;;1.90;0.95;;;;;;;9.58;58.21;101411.91;4941953;28;99629;-59
2021/04/16 02:04:12;;;;;;;1.83;0.95;;;;;;;9.61;58.38;101423.25;4941954;28;120942;-59
2021/04/16 02:06:38;;;;;;;1.65;1.20;;;;;;;9.54;58.69;101413.44;4941897;28;98052;-62
2021/04/16 02:09:07;;;;;;;1.95;1.25;;;;;;;9.54;58.89;101415.31;4943909;28;97716;-59
2021/04/16 02:11:34;;;;;;;2.50;1.40;;;;;;;9.56;58.92;101413.22;4943671;28;98885;-64
2021/04/16 02:14:00;;;;;;;1.60;1.20;;;;;;;9.54;59.21;101402.66;4943968;28;98786;-59
2021/04/16 02:16:26;;;;;;;2.50;1.20;;;;;;;9.57;58.50;101406.75;4954466;28;98040;-60
2021/04/16 02:18:53;;;;;;;1.67;1.10;;;;;;;9.53;58.20;101408.28;4962908;28;97784;-59
2021/04/16 02:21:19;;;;;;;1.95;1.20;;;;;;;9.57;58.75;101412.97;4958977;28;128402;-60
2021/04/16 02:23:45;;;;;;;1.70;1.38;;;;;;;9.59;58.81;101404.66;4963319;28;117249;-62
2021/04/16 02:26:11;;;;;;;2.47;1.30;;;;;;;9.51;59.08;101402.31;4943101;28;98063;-59
2021/04/16 02:28:37;;;;;;;2.30;1.30;;;;;;;9.52;58.51;101407.47;4924434;28;117535;-59
2021/04/16 02:31:03;;;;;;;1.42;1.02;;;;;;;9.53;58.43;101406.41;4952397;28;102538;-62
2021/04/16 02:33:30;;;;;;;1.70;1.33;;;;;;;9.55;59.20;101414.28;4962607;28;126547;-59
2021/04/16 02:35:56;;;;;;;2.03;1.40;;;;;;;9.54;58.70;101405.34;4961975;28;127556;-62
2021/04/16 02:38:22;;;;;;;2.50;1.63;;;;;;;9.54;59.41;101412.63;4966389;28;117518;-63
2021/04/16 02:40:48;;;;;;;2.05;1.27;;;;;;;9.53;58.89;101406.41;4943057;28;128333;-59
2021/04/16 02:43:14;;;;;;;2.20;1.10;;;;;;;9.52;59.08;101410.19;4963456;28;98390;-59
2021/04/16 02:45:40;;;;;;;2.58;1.35;;;;;;;9.51;59.05;101411.25;4959940;28;127381;-62
2021/04/16 02:48:06;;;;;;;1.65;1.17;;;;;;;9.51;58.55;101410.41;4962217;28;118624;-59
2021/04/16 02:50:33;;;;;;;1.77;1.10;;;;;;;9.47;58.95;101409.22;4949061;28;107228;-62
2021/04/16 02:52:59;;;;;;;1.80;1.20;;;;;;;9.54;59.31;101410.75;4941209;28;98203;-59
2021/04/16 02:55:25;;;;;;;2.25;1.30;;;;;;;9.49;59.17;101407.94;4941366;28;127532;-63
2021/04/16 02:57:51;;;;;;;2.17;1.35;;;;;;;9.51;59.22;101405.00;4955691;28;114364;-59
2021/04/16 03:00:24;;;;;;;2.45;1.60;;;;;;;9.47;59.16;101401.16;4946806;28;98243;-62
2021/04/16 03:02:50;;;;;;;2.30;1.50;;;;;;;9.44;59.09;101407.84;4941914;28;98543;-59
2021/04/16 03:05:16;;;;;;;2.03;1.35;;;;;;;9.49;59.29;101407.13;4907518;28;121462;-59
2021/04/16 03:07:42;;;;;;;1.92;1.40;;;;;;;9.43;59.49;101395.47;4942777;28;116589;-59
2021/04/16 03:10:10;;;;;;;2.65;1.30;;;;;;;9.43;59.25;101390.06;4941814;28;128781;-63
2021/04/16 03:12:36;;;;;;;2.17;1.40;;;;;;;9.42;59.79;101398.38;4942083;28;118136;-59
2021/04/16 03:15:03;;;;;;;2.25;1.52;;;;;;;9.43;59.37;101402.69;4940946;28;127914;-59
2021/04/16 03:17:29;;;;;;;2.45;1.83;;;;;;;9.42;60.40;101398.38;4948472;28;97779;-62
2021/04/16 03:19:55;;;;;;;2.42;1.63;;;;;;;9.42;59.44;101398.38;4961220;28;128208;-59
2021/04/16 03:22:21;;;;;;;2.17;1.40;;;;;;;9.42;59.71;101395.69;4961538;28;128330;-60
2021/04/16 03:24:48;;;;;;;2.85;1.42;;;;;;;9.39;60.02;101405.03;4961778;28;108237;-59
2021/04/16 03:27:14;;;;;;;2.33;1.60;;;;;;;9.38;59.81;101405.28;4961648;28;117580;-62
2021/04/16 03:29:40;;;;;;;1.95;1.38;;;;;;;9.40;60.22;101401.31;4960741;28;128238;-62
2021/04/16 03:32:06;;;;;;;2.22;1.48;;;;;;;9.37;60.02;101396.41;4963077;28;98794;-59
2021/04/16 03:34:33;;;;;;;2.55;1.48;;;;;;;9.37;59.97;101400.97;4961921;28;106852;-62
2021/04/16 03:36:59;;;;;;;2.03;1.70;;;;;;;9.36;59.46;101408.22;4962893;28;97779;-59
2021/04/16 03:39:27;;;;;;;1.50;1.02;;;;;;;9.36;59.55;101410.09;4960552;28;127171;-59
2021/04/16 03:41:53;;;;;;;2.97;1.40;;;;;;;9.36;59.85;101408.22;4961132;28;128651;-59
2021/04/16 03:44:19;;;;;;;2.90;1.48;;;;;;;9.34;59.87;101405.75;4959303;28;127555;-62
2021/04/16 03:46:45;;;;;;;2.50;1.70;;;;;;;9.33;59.65;101408.69;4950267;28;118111;-59
2021/04/16 03:49:11;;;;;;;2.15;1.17;;;;;;;9.30;60.09;101409.16;4948434;28;128886;-59
2021/04/16 03:51:52;;;;;;;2.75;1.40;;;;;;;9.29;60.04;101404.84;4949150;28;123553;-62
2021/04/16 03:54:19;;;;;;;2.70;1.30;;;;;;;9.32;60.25;101415.94;4961471;28;98402;-59
2021/04/16 03:56:45;;;;;;;2.55;1.35;;;;;;;9.29;60.03;101415.59;4962052;28;104806;-59
2021/04/16 03:59:11;;;;;;;2.03;1.30;;;;;;;9.31;60.00;101411.63;4961145;28;99034;-62
2021/04/16 04:01:38;;;;;;;2.50;1.40;;;;;;;9.30;60.70;101403.78;4959480;28;98343;-62
2021/04/16 04:04:04;;;;;;;2.47;1.25;;;;;;;9.27;60.40;101405.03;4939660;28;97908;-62
2021/04/16 04:06:30;;;;;;;2.20;1.30;;;;;;;9.28;60.33;101419.34;4942411;28;98426;-62
2021/04/16 04:08:56;;;;;;;2.38;1.40;;;;;;;9.27;60.45;101410.44;4941845;28;117911;-62
2021/04/16 04:11:22;;;;;;;1.90;1.40;;;;;;;9.29;60.00;101407.53;4942742;28;98055;-59
2021/04/16 04:13:48;;;;;;;2.22;1.20;;;;;;;9.28;60.37;101414.78;4941893;28;128149;-59
2021/04/16 04:16:15;;;;;;;2.83;1.15;;;;;;;9.27;60.20;101415.00;4945771;28;116455;-62
2021/04/16 04:18:41;;;;;;;2.25;1.42;;;;;;;9.28;59.80;101413.97;4960132;28;98377;-59
2021/04/16 04:21:07;;;;;;;2.05;1.27;;;;;;;9.26;60.13;101416.88;4948322;28;127668;-59
2021/04/16 04:23:33;;;;;;;1.77;1.27;;;;;;;9.25;60.29;101417.94;4923048;28;126355;-59
2021/04/16 04:25:59;;;;;;;2.33;1.30;;;;;;;9.27;60.42;101423.06;4941854;28;97907;-59
2021/04/16 04:28:25;;;;;;;2.28;1.33;;;;;;;9.24;60.17;101421.69;4940043;28;98528;-59
2021/04/16 04:30:51;;;;;;;3.53;1.42;;;;;;;9.24;60.46;101419.00;4939265;28;127772;-59
2021/04/16 04:33:17;;;;;;;1.70;1.05;;;;;;;9.27;60.26;101423.06;4953368;28;97987;-62
2021/04/16 04:35:43;;;;;;;3.08;1.50;;;;;;;9.25;60.42;101420.63;4961190;28;100892;-62
2021/04/16 04:38:09;;;;;;;2.58;1.20;;;;;;;9.27;59.96;101423.06;4961450;28;100266;-62
2021/04/16 04:40:36;;;;;;;2.35;1.30;;;;;;;9.24;60.01;101427.06;4961892;28;99194;-59
2021/04/16 04:43:02;;;;;;;2.33;1.35;;;;;;;9.25;60.63;101426.00;4963992;28;98275;-59
2021/04/16 04:45:29;;;;;;;1.83;1.08;;;;;;;9.26;60.18;101424.13;4964722;28;97827;-59
2021/04/16 04:47:55;;;;;;;1.98;1.10;;;;;;;9.28;60.54;101432.78;4964419;28;98534;-62
2021/04/16 04:50:21;;;;;;;1.95;1.20;;;;;;;9.29;60.00;101431.75;4948719;28;113180;-62
2021/04/16 04:52:48;;;;;;;2.25;1.33;;;;;;;9.30;60.42;101427.97;4957113;28;113222;-62
2021/04/16 04:55:25;;;;;;;2.80;1.40;;;;;;;9.25;60.82;101441.34;4964824;28;98224;-62
2021/04/16 04:57:51;;;;;;;1.85;1.20;;;;;;;9.28;60.62;101436.31;4957974;28;98394;-63
2021/04/16 05:00:18;;;;;;;2.15;1.30;;;;;;;9.32;59.78;101429.41;4944896;28;98395;-62
2021/04/16 05:02:44;;;;;;;2.60;1.33;;;;;;;9.29;60.40;101434.44;4959845;28;98884;-59
2021/04/16 05:05:11;;;;;;;2.10;1.20;;;;;;;9.33;60.65;101439.09;4964602;28;98124;-59
2021/04/16 05:07:37;;;;;;;1.63;1.10;;;;;;;9.32;60.71;101432.09;4963089;28;115016;-59
2021/04/16 05:10:04;;;;;;;2.05;1.25;;;;;;;9.36;60.77;101437.00;4950738;28;128196;-62
2021/04/16 05:12:30;;;;;;;2.42;1.30;;;;;;;9.38;59.97;101438.38;4944577;28;98072;-62
2021/04/16 05:14:56;;;;;;;1.80;1.10;;;;;;;9.38;59.90;101438.38;4944601;28;97825;-62
2021/04/16 05:17:22;;;;;;;2.17;1.27;;;;;;;9.38;60.28;101433.00;4957300;28;120294;-59
2021/04/16 05:19:48;;;;;;;1.92;1.17;;;;;;;9.42;60.75;101436.03;4963505;28;128000;-59
2021/04/16 05:22:15;;;;;;;3.17;1.20;;;;;;;9.37;60.96;101431.38;4963479;28;128017;-62
2021/04/16 05:24:41;;;;;;;1.98;1.20;;;;;;;9.40;60.52;101440.84;4949650;28;97796;-61
2021/04/16 05:27:10;;;;;;;1.92;1.00;;;;;;;9.35;60.80;101436.16;4943311;28;127828;-61
2021/04/16 05:29:36;;;;;;;2.72;1.13;;;;;;;9.34;61.49;101439.91;4943995;28;119747;-62
2021/04/16 05:32:02;;;;;;;3.20;1.20;;;;;;;9.34;60.94;101438.03;4955517;28;97781;-59
2021/04/16 05:34:28;;;;;;;2.38;1.20;;;;;;;9.37;60.80;101444.00;4942137;28;97907;-62
2021/04/16 05:36:55;;;;;;;2.22;1.10;;;;;;;9.34;60.73;101445.28;4947541;28;100789;-59
2021/04/16 05:39:21;;;;;;;1.88;1.30;;;;;;;9.33;60.68;101433.72;4964278;28;98648;-62
2021/04/16 05:41:47;;;;;;;2.13;1.05;;;;;;;9.28;61.20;101430.09;4962194;28;100859;-62
2021/04/16 05:44:13;;;;;;;2.20;1.40;;;;;;;9.33;61.23;101436.41;4944557;28;97834;-62
2021/04/16 05:46:39;;;;;;;2.08;1.13;;;;;;;9.34;60.75;101448.78;4943166;28;118601;-62
2021/04/16 05:49:05;;;;;;;2.55;1.30;;;;;;;9.29;60.85;101440.63;4944044;28;110408;-62
2021/04/16 05:51:31;;;;;;;1.77;0.98;;;;;;;9.37;61.32;101438.63;4951158;28;106658;-59
2021/04/16 05:53:57;;;;;;;2.25;1.05;;;;;;;9.39;61.10;101431.13;4962642;28;97877;-59
2021/04/16 05:56:23;;;;;;;1.70;0.90;;;;;;;9.41;60.95;101434.41;4961790;28;98989;-62
2021/04/16 05:58:49;;;;;;;2.20;1.15;;;;;;;9.41;61.00;101440.63;4960617;28;127941;-62
2021/04/16 06:01:15;;;;;;;2.15;1.05;;;;;;;9.37;61.08;101436.75;4961734;28;120036;-59
2021/04/16 06:03:45;;;;;;;2.28;0.93;;;;;;;9.40;61.59;101441.69;4961529;28;116293;-62
2021/04/16 06:06:11;;;;;;;2.00;1.10;;;;;;;9.43;61.79;101445.75;4955812;28;98240;-62
2021/04/16 06:08:38;;;;;;;2.53;1.10;;;;;;;9.42;61.29;101441.44;4962840;28;107618;-60
2021/04/16 06:11:04;;;;;;;3.00;1.20;;;;;;;9.45;61.57;101447.16;4961526;28;126340;-62
2021/04/16 06:13:30;;;;;;;2.30;1.40;;;;;;;9.46;61.28;101440.72;4962591;28;117462;-62
2021/04/16 06:15:56;;;;;;;2.15;1.02;;;;;;;9.44;61.46;101433.94;4963201;28;98288;-62
2021/04/16 06:18:22;;;;;;;2.60;1.30;;;;;;;9.50;61.27;101436.50;4963093;28;107497;-59
2021/04/16 06:20:49;;;;;;;1.83;1.00;;;;;;;9.51;61.31;101442.69;4960706;28;119852;-60
2021/04/16 06:23:15;;;;;;;2.65;1.30;;;;;;;9.46;61.31;101438.03;4944037;28;109231;-62
2021/04/16 06:25:41;;;;;;;2.05;1.10;;;;;;;9.55;61.42;101443.88;4943642;28;99020;-63
2021/04/16 06:28:07;;;;;;;2.03;0.98;;;;;;;9.60;61.18;101430.53;4962174;28;128239;-60
2021/04/16 06:30:33;;;;;;;2.05;1.20;;;;;;;9.63;60.68;101435.44;4963232;28;98820;-62
2021/04/16 06:33:24;;;;;;;2.28;1.17;;;;;;;9.64;60.99;101439.75;4957176;28;98191;-62
2021/04/16 06:35:58;;;;;;;2.20;1.15;;;;;;;9.72;60.54;101439.38;4943100;28;99217;-59
2021/04/16 06:38:29;;;;;;;2.33;1.10;;;;;;;9.70;61.03;101446.88;4943645;28;98648;-60
2021/04/16 06:40:55;;;;;;;2.35;1.08;;;;;;;9.76;61.44;101440.56;4943083;28;98631;-57
2021/04/16 06:43:29;;;;;;;1.73;1.00;;;;;;;9.76;60.84;101450.50;4924583;28;116868;-60
2021/04/16 06:45:59;;;;;;;2.35;1.17;;;;;;;9.75;61.03;101447.00;4942337;28;98192;-64
2021/04/16 06:48:25;;;;;;;2.25;1.20;;;;;;;9.78;60.89;101441.13;4941777;28;98221;-60
2021/04/16 06:50:51;;;;;;;1.58;1.10;;;;;;;9.81;61.15;101442.53;4924960;28;98444;-60
2021/04/16 06:54:11;;;;;;;2.75;1.02;;;;;;;9.87;61.00;101443.47;4942842;28;105755;-63
2021/04/16 06:56:44;;;;;;;1.75;1.20;;;;;;;9.77;61.46;101439.47;4945548;28;98443;-60
2021/04/16 06:59:31;;;;;;;1.77;1.08;;;;;;;9.89;61.23;101444.84;4938758;28;98132;-60
2021/04/16 07:02:05;;;;;;;1.95;1.10;;;;;;;9.87;61.33;101446.16;4941858;28;117799;-60
2021/04/16 07:04:52;;;;;;;2.00;1.30;;;;;;;9.88;60.82;101451.28;4940196;28;106456;-60
2021/04/16 07:07:38;;;;;;;2.67;1.33;;;;;;;9.89;60.99;101449.41;4927668;28;114744;-58
2021/04/16 07:10:10;;;;;;;3.42;1.30;;;;;;;9.91;61.72;101447.31;4944771;28;97816;-63
2021/04/16 07:12:36;;;;;;;2.65;1.20;;;;;;;9.98;61.09;101443.44;4955719;28;116504;-61
2021/04/16 07:15:09;;;;;;;2.60;1.00;;;;;;;10.00;60.77;101443.16;4941958;28;118974;-60
2021/04/16 07:17:40;;;;;;;2.78;1.25;;;;;;;10.02;61.05;101443.72;4909093;28;99037;-60
2021/04/16 07:20:08;;;;;;;2.97;1.20;;;;;;;10.06;60.57;101450.28;4924579;28;98894;-61
2021/04/16 07:22:50;;;;;;;1.92;0.90;;;;;;;10.06;60.95;101451.13;4942599;28;98033;-60
2021/04/16 07:26:00;;;;;;;1.50;0.90;;;;;;;10.15;61.44;101440.78;4942734;28;98021;-63
2021/04/16 07:28:29;;;;;;;1.70;0.70;;;;;;;10.22;60.86;101449.53;4960981;28;98650;-62
2021/04/16 07:30:55;;;;;;;2.50;1.13;;;;;;;10.27;61.09;101446.97;4959700;28;98566;-60
2021/04/16 07:33:31;;;;;;;1.92;1.10;;;;;;;10.29;61.52;101444.81;4942248;28;98084;-60
2021/04/16 07:36:41;;;;;;;2.05;1.10;;;;;;;10.33;60.77;101450.53;4943897;28;98140;-63
2021/04/16 07:39:16;;;;;;;2.75;1.20;;;;;;;10.35;61.11;101450.31;4945503;28;98832;-62
2021/04/16 07:41:54;;;;;;;1.92;1.17;;;;;;;10.38;61.13;101452.53;4944419;28;99134;-60
2021/04/16 07:44:34;;;;;;;2.15;1.13;;;;;;;10.46;61.03;101452.16;4960004;28;97935;-61
2021/04/16 07:47:12;;;;;;;2.05;1.02;;;;;;;10.51;60.51;101449.53;4945342;28;98133;-58
2021/04/16 07:49:52;;;;;;;2.00;1.15;;;;;;;10.53;61.18;101453.63;4955434;28;98355;-61
2021/04/16 07:52:23;;;;;;;1.73;1.10;;;;;;;10.62;61.10;101459.44;4948823;28;122293;-61
2021/04/16 07:55:25;;;;;;;2.13;1.25;;;;;;;10.67;60.86;101456.81;4941665;28;99029;-61
2021/04/16 07:57:51;;;;;;;2.30;1.02;;;;;;;10.69;60.76;101452.00;4958208;28;103399;-61
2021/04/16 08:00:23;;;;;;;2.65;1.40;;;;;;;10.75;60.87;101448.31;4962143;28;98324;-58
2021/04/16 08:03:16;;;;;;;2.28;1.25;;;;;;;10.79;60.81;101456.75;4962376;28;98641;-58
2021/04/16 08:05:54;;;;;;;2.58;1.35;;;;;;;10.87;61.05;101455.53;4943750;28;98036;-60
2021/04/16 08:08:21;;;;;;;2.70;1.45;;;;;;;10.92;61.00;101448.31;4942462;28;98092;-58
2021/04/16 08:11:06;;;;;;;2.30;1.20;;;;;;;10.97;60.63;101451.13;4943497;28;98459;-58
2021/04/16 08:13:54;;;;;;;2.38;1.30;;;;;;;11.05;60.29;101452.59;4955345;28;98497;-58
2021/04/16 08:16:38;;;;;;;2.65;1.48;;;;;;;11.14;60.39;101450.28;4943648;28;99558;-61
2021/04/16 08:19:27;;;;;;;2.78;1.50;;;;;;;11.19;60.45;101453.03;4956486;28;97979;-58
2021/04/16 08:22:06;;;;;;;2.58;1.52;;;;;;;11.22;60.14;101458.78;4952563;28;98475;-63
2021/04/16 08:25:05;;;;;;;3.42;1.50;;;;;;;11.29;60.84;101453.22;4925228;28;115619;-60
2021/04/16 08:28:04;;;;;;;3.13;1.50;;;;;;;11.30;60.94;101450.25;4940845;28;98702;-58
2021/04/16 08:30:50;;;;;;;2.67;1.60;;;;;;;11.47;60.81;101455.59;4957970;28;111161;-61
2021/04/16 08:33:40;;;;;;;3.17;1.50;;;;;;;11.65;60.03;101456.41;4948725;28;98357;-62
2021/04/16 08:36:25;;;;;;;3.50;1.63;;;;;;;11.75;59.83;101453.81;4960616;28;104957;-61
2021/04/16 08:39:20;;;;;;;2.47;1.45;;;;;;;11.84;59.77;101455.03;4959643;28;98031;-63
2021/04/16 08:42:02;;;;;;;2.88;1.42;;;;;;;11.75;60.04;101451.94;4942368;28;107914;-58
2021/04/16 08:44:28;;;;;;;3.83;1.67;;;;;;;11.97;59.77;101453.84;4939059;28;115474;-60
2021/04/16 08:46:55;;;;;;;4.35;1.67;;;;;;;12.07;59.80;101447.75;4945592;28;108305;-60
2021/04/16 08:49:30;;;;;;;3.17;1.65;;;;;;;12.08;60.08;101446.66;4922804;28;98227;-58
2021/04/16 08:52:17;;;;;;;2.80;1.58;;;;;;;11.90;60.60;101456.72;4941946;28;98068;-60
2021/04/16 08:54:45;;;;;;;2.22;1.50;;;;;;;11.79;61.04;101455.78;4924271;28;99394;-58
2021/04/16 08:57:30;;;;;;;2.72;1.35;;;;;;;11.86;60.51;101454.78;4951868;28;112924;-58
2021/04/16 09:00:15;;;;;;;3.15;1.80;;;;;;;11.86;60.55;101457.47;4943597;28;98091;-58
2021/04/16 09:02:46;;;;;;;2.95;1.63;;;;;;;11.92;60.96;101451.09;4928620;28;97991;-61
2021/04/16 09:05:12;;;;;;;2.53;1.45;;;;;;;11.87;61.04;101451.00;4939287;28;98351;-61
2021/04/16 09:08:16;;;;;;;4.13;2.00;;;;;;;11.99;61.08;101444.44;4942653;28;98376;-58
2021/04/16 09:10:47;;;;;;;2.92;1.70;;;;;;;12.04;60.70;101444.47;4929461;28;98606;-61
2021/04/16 09:13:34;;;;;;;3.25;1.75;;;;;;;12.25;60.53;101445.50;4924431;28;97853;-59
2021/04/16 09:16:15;;;;;;;2.88;1.60;;;;;;;12.27;59.95;101434.44;4944948;28;98168;-61
2021/04/16 09:18:44;;;;;;;3.50;1.48;;;;;;;12.36;60.00;101435.59;4961622;28;98600;-59
2021/04/16 09:21:16;;;;;;;2.90;1.60;;;;;;;12.57;59.16;101427.69;4958478;28;98402;-62
2021/04/16 09:23:46;;;;;;;2.88;1.70;;;;;;;12.90;58.68;101426.59;4961626;28;97856;-59
2021/04/16 09:26:32;;;;;;;3.35;1.70;;;;;;;13.13;58.20;101425.41;4959251;28;98467;-62
2021/04/16 09:28:58;;;;;;;3.22;1.73;;;;;;;13.41;57.54;101427.78;4962508;28;98480;-59
2021/04/16 09:31:24;;;;;;;4.07;1.83;;;;;;;13.36;58.08;101433.16;4957444;28;110072;-59
2021/04/16 09:34:14;;;;;;;4.35;1.80;;;;;;;13.24;58.70;101436.06;4944888;28;97779;-59
2021/04/16 09:36:41;;;;;;;2.78;1.52;;;;;;;13.09;59.05;101433.25;4946110;28;98521;-62
2021/04/16 09:39:13;;;;;;;2.63;1.60;;;;;;;13.20;59.29;101434.09;4943179;28;114903;-59
2021/04/16 09:41:44;;;;;;;3.17;1.70;;;;;;;13.19;59.29;101433.28;4942080;28;98107;-59
2021/04/16 09:44:28;;;;;;;4.65;1.75;;;;;;;13.15;59.66;101432.19;4927264;28;97819;-62
2021/04/16 09:47:01;;;;;;;3.25;1.80;;;;;;;13.20;59.50;101434.09;4953549;28;98530;-62
2021/04/16 09:49:27;;;;;;;;;;;;;;;13.10;59.84;101434.88;4962242;28;98574;-59
2021/04/16 09:51:55;;;;;;;3.78;1.50;;;;;;;12.94;60.47;101438.53;4963642;28;98220;-62
2021/04/16 09:54:21;;;;;;;2.53;1.33;;;;;;;12.97;60.46;101435.31;4958087;28;97920;-61
2021/04/16 09:57:08;;;;;;;3.58;1.38;;;;;;;12.99;60.52;101433.97;4952772;28;98798;-62
2021/04/16 09:59:35;;;;;;;2.67;1.60;;;;;;;12.94;60.62;101436.66;4963143;28;98848;-62
2021/04/16 10:02:13;;;;;;;3.28;1.70;;;;;;;13.01;60.39;101434.53;4943625;28;98186;-59
2021/04/16 10:05:18;;;;;;;2.88;1.40;;;;;;;13.53;59.42;101429.47;4943504;28;97895;-62
2021/04/16 10:07:51;;;;;;;2.60;1.55;;;;;;;13.64;58.95;101421.13;4954077;28;98777;-59
2021/04/16 10:10:30;;;;;;;5.35;1.50;;;;;;;13.85;58.58;101427.41;4950299;28;99056;-59
2021/04/16 10:13:20;;;;;;;3.33;1.20;;;;;;;14.15;57.98;101421.28;4927882;28;120107;-62
2021/04/16 10:15:54;;;;;;;3.38;1.40;;;;;;;14.30;57.56;101422.38;4942238;28;97838;-60
2021/04/16 10:18:38;;;;;;;2.53;1.40;;;;;;;14.45;57.58;101417.78;4943030;28;115717;-62
2021/04/16 10:21:09;;;;;;;2.05;1.23;;;;;;;14.46;57.81;101414.00;4940946;28;111423;-62
2021/04/16 10:23:41;;;;;;;2.28;1.30;;;;;;;14.56;57.43;101413.19;4943556;28;97961;-59
2021/04/16 10:27:23;;;;;;;2.35;1.42;;;;;;;14.84;57.08;101408.31;4944637;28;98126;-62
2021/04/16 10:36:23;;;;;;;3.88;1.40;;;;;;;16.69;53.72;101393.56;4942113;28;97857;-63
2021/04/16 10:59:04;;;;;;;1.88;0.90;;;;;;;16.69;54.65;101405.25;4924773;28;97966;-63
2021/04/16 11:29:04;;;;;;;1.88;0.50;;;;;;;17.70;52.37;101425.50;4960063;28;97875;-60
2021/04/16 12:40:52;;;;;;;2.58;0.70;;;;;;;15.74;55.20;101405.63;4939588;28;98068;-63
2021/04/16 12:43:18;;;;;;;2.03;0.60;;;;;;;15.81;54.26;101413.50;4939014;28;115257;-60
2021/04/16 12:45:44;;;;;;;2.40;0.50;;;;;;;15.84;55.13;101405.59;4921069;28;128261;-62
2021/04/16 12:48:10;;;;;;;3.55;0.70;;;;;;;15.92;54.69;101406.91;4918149;28;123223;-62
2021/04/16 12:50:36;;;;;;;3.75;0.75;;;;;;;16.13;54.39;101407.59;4955328;28;127218;-63
2021/04/16 12:53:02;;;;;;;2.95;0.55;;;;;;;16.29;53.56;101402.88;4957814;28;116306;-63
2021/04/16 12:55:28;;;;;;;1.52;0.57;;;;;;;16.30;54.01;101408.03;4938565;28;98548;-63
2021/04/16 12:58:06;;;;;;;2.38;0.63;;;;;;;16.34;53.94;101403.63;4958390;28;102458;-62
2021/04/16 13:00:36;;;;;;;2.53;0.40;;;;;;;16.84;52.88;101406.25;4955529;28;98270;-60
2021/04/16 13:03:04;;;;;;;2.25;0.50;;;;;;;17.49;51.88;101392.19;4940088;28;104602;-63
2021/04/16 13:05:32;;;;;;;1.70;0.40;;;;;;;17.98;51.38;101388.34;4958389;28;98661;-59
2021/04/16 13:07:58;;;;;;;1.73;0.40;;;;;;;18.89;49.67;101375.94;4948821;28;99102;-60
2021/04/16 13:10:24;;;;;;;1.13;0.30;;;;;;;19.35;49.23;101374.25;4959009;28;128370;-63
2021/04/16 13:12:50;;;;;;;2.13;0.40;;;;;;;20.02;48.03;101368.19;4961792;28;116595;-60
2021/04/16 13:15:17;;;;;;;1.02;0.40;;;;;;;20.06;47.98;101372.72;4955811;28;103749;-60
2021/04/16 13:17:48;;;;;;;1.55;0.40;;;;;;;19.42;49.37;101369.19;4959285;28;98835;-60
2021/04/16 13:20:14;;;;;;;1.58;0.30;;;;;;;19.30;49.99;101377.09;4942299;28;98466;-59
2021/04/16 13:22:42;;;;;;;1.40;0.30;;;;;;;19.14;49.42;101373.84;4955398;28;97854;-63
2021/04/16 13:25:09;;;;;;;1.65;0.40;;;;;;;19.16;48.97;101368.88;4960237;28;98213;-63
2021/04/16 13:27:35;;;;;;;1.33;0.40;;;;;;;19.95;47.13;101365.06;4955144;28;98051;-63
2021/04/16 13:30:03;;;;;;;1.30;0.40;;;;;;;19.91;47.57;101362.13;4960734;28;98230;-60
2021/04/16 13:32:33;;;;;;;1.75;0.40;;;;;;;19.47;48.71;101360.06;4958842;28;112943;-63
2021/04/16 13:35:01;;;;;;;1.65;0.32;;;;;;;19.13;49.21;101361.28;4926523;28;98458;-60
2021/04/16 13:37:31;;;;;;;2.53;0.50;;;;;;;18.80;48.96;101360.56;4956178;28;98372;-59
2021/04/16 13:40:00;;;;;;;1.27;0.38;;;;;;;18.86;48.59;101359.34;4940580;28;98254;-62
2021/04/16 13:42:26;;;;;;;1.60;0.30;;;;;;;18.98;48.21;101354.22;4958012;28;105355;-59
2021/04/16 13:44:52;;;;;;;1.48;0.40;;;;;;;18.98;48.25;101350.66;4960007;28;100843;-63
2021/04/16 13:47:21;;;;;;;1.33;0.40;;;;;;;19.20;47.86;101345.31;4958762;28;128575;-63
2021/04/16 13:49:47;;;;;;;1.58;0.45;;;;;;;19.37;47.37;101345.50;4941367;28;103629;-62